createdAt,value
2017-11-20T00:02:26.879Z,100806
2017-11-20T00:04:54.999Z,100795
2017-11-20T00:07:23.152Z,100801
2017-11-20T00:09:51.299Z,100797
2017-11-20T00:12:19.454Z,100801
2017-11-20T00:14:48.047Z,100787
2017-11-20T00:17:16.210Z,100787
2017-11-20T00:19:44.339Z,100796
2017-11-20T00:22:14.485Z,100795
2017-11-20T00:24:43.335Z,100809
2017-11-20T00:27:11.634Z,100806
2017-11-20T00:29:39.785Z,100797
2017-11-20T00:32:07.923Z,100801
2017-11-20T00:34:36.078Z,100797
2017-11-20T00:37:04.956Z,100801
2017-11-20T00:39:33.749Z,100810
2017-11-20T00:42:01.874Z,100834
2017-11-20T00:44:30.155Z,100832
2017-11-20T00:46:58.301Z,100819
2017-11-20T00:49:26.422Z,100819
2017-11-20T00:51:54.558Z,100819
2017-11-20T00:54:22.964Z,100817
2017-11-20T00:56:51.078Z,100820
2017-11-20T00:59:19.700Z,100826
2017-11-20T01:01:47.846Z,100819
2017-11-20T01:04:15.974Z,100816
2017-11-20T01:06:44.106Z,100830
2017-11-20T01:09:12.224Z,100851
2017-11-20T01:11:40.361Z,100861
2017-11-20T01:14:11.334Z,100859
2017-11-20T01:16:39.467Z,100857
2017-11-20T01:19:07.603Z,100853
2017-11-20T01:21:35.719Z,100825
2017-11-20T01:24:04.131Z,100835
2017-11-20T01:26:32.267Z,100844
2017-11-20T01:29:00.413Z,100854
2017-11-20T01:31:29.664Z,100850
2017-11-20T01:33:57.828Z,100847
2017-11-20T01:36:25.959Z,100844
2017-11-20T01:38:54.090Z,100838
2017-11-20T01:41:22.243Z,100836
2017-11-20T01:43:50.842Z,100844
2017-11-20T01:46:18.955Z,100836
2017-11-20T01:48:47.083Z,100837
2017-11-20T01:51:15.205Z,100855
2017-11-20T01:53:43.378Z,100858
2017-11-20T01:56:12.430Z,100858
2017-11-20T01:58:40.704Z,100853
2017-11-20T02:01:09.096Z,100839
2017-11-20T02:03:37.707Z,100844
2017-11-20T02:06:05.895Z,100830
2017-11-20T02:08:34.789Z,100828
2017-11-20T02:11:03.718Z,100834
2017-11-20T02:13:31.844Z,100836
2017-11-20T02:16:00.025Z,100834
2017-11-20T02:18:29.242Z,100846
2017-11-20T02:20:57.473Z,100849
2017-11-20T02:23:25.643Z,100855
2017-11-20T02:25:53.956Z,100848
2017-11-20T02:28:22.900Z,100830
2017-11-20T02:30:51.123Z,100843
2017-11-20T02:33:20.490Z,100825
2017-11-20T02:35:49.735Z,100843
2017-11-20T02:38:17.910Z,100846
2017-11-20T02:40:46.142Z,100845
2017-11-20T02:43:14.844Z,100844
2017-11-20T02:45:43.035Z,100831
2017-11-20T02:48:11.995Z,100822
2017-11-20T02:50:40.206Z,100821
2017-11-20T02:53:09.135Z,100821
2017-11-20T02:55:37.332Z,100828
2017-11-20T02:58:05.545Z,100820
2017-11-20T03:00:33.755Z,100818
2017-11-20T03:03:01.896Z,100821
2017-11-20T03:05:30.089Z,100825
2017-11-20T03:07:58.241Z,100827
2017-11-20T03:10:26.854Z,100827
2017-11-20T03:12:55.029Z,100828
2017-11-20T03:15:23.214Z,100834
2017-11-20T03:17:51.346Z,100827
2017-11-20T03:20:19.540Z,100843
2017-11-20T03:22:48.017Z,100836
2017-11-20T03:25:16.182Z,100830
2017-11-20T03:27:44.304Z,100828
2017-11-20T03:30:12.489Z,100821
2017-11-20T03:32:40.666Z,100822
2017-11-20T03:35:08.891Z,100824
2017-11-20T03:37:37.034Z,100832
2017-11-20T03:40:05.169Z,100828
2017-11-20T03:42:33.423Z,100825
2017-11-20T03:45:01.670Z,100827
2017-11-20T03:47:31.003Z,100824
2017-11-20T03:49:59.200Z,100832
2017-11-20T03:52:27.347Z,100827
2017-11-20T03:54:55.474Z,100829
2017-11-20T03:57:25.112Z,100830
2017-11-20T03:59:53.987Z,100836
2017-11-20T04:02:22.870Z,100830
2017-11-20T04:04:51.002Z,100828
2017-11-20T04:07:19.666Z,100836
2017-11-20T04:09:47.841Z,100834
2017-11-20T04:12:15.956Z,100826
2017-11-20T04:14:44.072Z,100827
2017-11-20T04:17:12.199Z,100826
2017-11-20T04:19:40.354Z,100829
2017-11-20T04:22:08.510Z,100836
2017-11-20T04:24:36.648Z,100835
2017-11-20T04:27:05.109Z,100830
2017-11-20T04:29:34.777Z,100823
2017-11-20T04:32:02.955Z,100843
2017-11-20T04:34:31.125Z,100816
2017-11-20T04:36:59.497Z,100831
2017-11-20T04:39:27.679Z,100826
2017-11-20T04:41:55.847Z,100833
2017-11-20T04:44:23.987Z,100826
2017-11-20T04:46:53.236Z,100825
2017-11-20T04:49:21.415Z,100831
2017-11-20T04:51:49.618Z,100829
2017-11-20T04:54:17.974Z,100825
2017-11-20T04:56:46.154Z,100820
2017-11-20T04:59:14.348Z,100820
2017-11-20T05:01:42.462Z,100831
2017-11-20T05:04:10.617Z,100829
2017-11-20T05:06:39.482Z,100829
2017-11-20T05:09:07.622Z,100828
2017-11-20T05:11:35.774Z,100819
2017-11-20T05:14:03.960Z,100833
2017-11-20T05:16:32.101Z,100832
2017-11-20T05:19:00.218Z,100839
2017-11-20T05:21:28.771Z,100837
2017-11-20T05:23:57.666Z,100838
2017-11-20T05:26:25.789Z,100837
2017-11-20T05:28:53.933Z,100834
2017-11-20T05:31:22.172Z,100836
2017-11-20T05:33:50.344Z,100834
2017-11-20T05:36:19.209Z,100862
2017-11-20T05:38:47.498Z,100843
2017-11-20T05:41:15.623Z,100838
2017-11-20T05:43:43.793Z,100845
2017-11-20T05:46:11.937Z,100832
2017-11-20T05:48:41.138Z,100836
2017-11-20T05:51:09.309Z,100838
2017-11-20T05:53:38.214Z,100845
2017-11-20T05:56:07.087Z,100835
2017-11-20T05:58:35.978Z,100849
2017-11-20T06:01:04.878Z,100835
2017-11-20T06:03:33.758Z,100844
2017-11-20T06:06:02.650Z,100850
2017-11-20T06:08:30.791Z,100844
2017-11-20T06:10:59.406Z,100836
2017-11-20T06:13:27.526Z,100844
2017-11-20T06:15:55.677Z,100834
2017-11-20T06:18:23.816Z,100845
2017-11-20T06:20:53.456Z,100844
2017-11-20T06:23:21.942Z,100843
2017-11-20T06:25:50.078Z,100847
2017-11-20T06:28:18.221Z,100838
2017-11-20T06:30:46.361Z,100834
2017-11-20T06:33:14.462Z,100820
2017-11-20T06:35:42.626Z,100839
2017-11-20T06:38:11.186Z,100843
2017-11-20T06:40:40.486Z,100828
2017-11-20T06:43:09.362Z,100852
2017-11-20T06:45:37.522Z,100855
2017-11-20T06:48:05.651Z,100857
2017-11-20T06:50:33.802Z,100858
2017-11-20T06:53:01.934Z,100870
2017-11-20T06:55:30.789Z,100880
2017-11-20T06:57:58.928Z,100898
2017-11-20T07:00:27.352Z,100882
2017-11-20T07:02:56.041Z,100884
2017-11-20T07:05:24.250Z,100877
2017-11-20T07:07:52.362Z,100875
2017-11-20T07:10:20.564Z,100882
2017-11-20T07:12:48.705Z,100888
2017-11-20T07:15:16.835Z,100883
2017-11-20T07:17:44.988Z,100890
2017-11-20T07:20:13.131Z,100875
2017-11-20T07:22:41.290Z,100884
2017-11-20T07:25:23.452Z,100875
2017-11-20T07:28:02.227Z,100882
2017-11-20T07:30:45.918Z,100879
2017-11-20T07:33:14.078Z,100879
2017-11-20T07:35:47.581Z,100876
2017-11-20T07:38:19.667Z,100873
2017-11-20T07:41:04.949Z,100879
2017-11-20T07:43:33.243Z,100871
2017-11-20T07:46:01.393Z,100878
2017-11-20T07:48:30.047Z,100873
2017-11-20T07:50:58.275Z,100866
2017-11-20T07:53:27.154Z,100876
2017-11-20T07:55:56.325Z,100878
2017-11-20T07:58:24.478Z,100877
2017-11-20T08:00:52.835Z,100874
2017-11-20T08:03:20.974Z,100872
2017-11-20T08:05:49.838Z,100875
2017-11-20T08:08:18.066Z,100874
2017-11-20T08:10:46.510Z,100881
2017-11-20T08:13:14.670Z,100880
2017-11-20T08:15:42.818Z,100877
2017-11-20T08:18:11.075Z,100875
2017-11-20T08:20:39.195Z,100876
2017-11-20T08:23:07.338Z,100885
2017-11-20T08:25:35.471Z,100885
2017-11-20T08:28:03.610Z,100882
2017-11-20T08:30:31.763Z,100889
2017-11-20T08:32:59.891Z,100879
2017-11-20T08:35:28.605Z,100877
2017-11-20T08:37:56.738Z,100883
2017-11-20T08:40:24.886Z,100887
2017-11-20T08:42:52.999Z,100884
2017-11-20T08:45:21.146Z,100882
2017-11-20T08:47:49.381Z,100881
2017-11-20T08:50:17.566Z,100882
2017-11-20T08:52:45.732Z,100878
2017-11-20T08:55:13.890Z,100876
2017-11-20T08:57:42.167Z,100873
2017-11-20T09:00:10.658Z,100881
2017-11-20T09:02:38.860Z,100875
2017-11-20T09:05:07.032Z,100880
2017-11-20T09:07:35.228Z,100883
2017-11-20T09:10:03.422Z,100883
2017-11-20T09:12:32.295Z,100875
2017-11-20T09:15:00.443Z,100867
2017-11-20T09:17:28.660Z,100872
2017-11-20T09:19:56.816Z,100818
2017-11-20T09:22:25.448Z,100870
2017-11-20T09:24:53.606Z,100872
2017-11-20T09:27:21.754Z,100874
2017-11-20T09:29:49.893Z,100873
2017-11-20T09:32:18.047Z,100873
2017-11-20T09:34:46.244Z,100882
2017-11-20T09:37:14.690Z,100873
2017-11-20T09:39:42.826Z,100877
2017-11-20T09:42:11.234Z,100871
2017-11-20T09:44:40.123Z,100878
2017-11-20T09:47:09.100Z,100874
2017-11-20T09:49:38.043Z,100868
2017-11-20T09:52:06.339Z,100870
2017-11-20T09:54:34.575Z,100871
2017-11-20T09:57:03.218Z,100848
2017-11-20T09:59:31.522Z,100868
2017-11-20T10:02:00.791Z,100876
2017-11-20T10:04:28.997Z,100875
2017-11-20T10:06:57.946Z,100876
2017-11-20T10:09:26.304Z,100879
2017-11-20T10:11:54.478Z,100877
2017-11-20T10:14:22.717Z,100873
2017-11-20T10:16:51.634Z,100876
2017-11-20T10:19:19.813Z,100874
2017-11-20T10:21:47.990Z,100869
2017-11-20T10:24:16.205Z,100877
2017-11-20T10:26:44.876Z,100870
2017-11-20T10:29:13.082Z,100913
2017-11-20T10:31:42.784Z,100871
2017-11-20T10:34:10.963Z,100865
2017-11-20T10:36:39.150Z,100865
2017-11-20T10:39:08.136Z,100875
2017-11-20T10:41:36.361Z,100867
2017-11-20T10:44:04.917Z,100869
2017-11-20T10:46:33.894Z,100865
2017-11-20T10:49:02.047Z,100866
2017-11-20T10:51:30.250Z,100866
2017-11-20T10:53:58.449Z,100867
2017-11-20T10:56:26.827Z,100863
2017-11-20T10:58:55.032Z,100859
2017-11-20T11:01:23.273Z,100853
2017-11-20T11:03:51.483Z,100861
2017-11-20T11:06:19.694Z,100854
2017-11-20T11:08:48.276Z,100856
2017-11-20T11:11:16.459Z,100847
2017-11-20T11:13:44.796Z,100845
2017-11-20T11:16:13.036Z,100852
2017-11-20T11:18:41.244Z,100848
2017-11-20T11:21:09.497Z,100850
2017-11-20T11:23:37.670Z,100845
2017-11-20T11:26:06.629Z,100838
2017-11-20T11:28:34.877Z,100835
2017-11-20T11:31:03.447Z,100844
2017-11-20T11:33:31.658Z,100836
2017-11-20T11:36:00.947Z,100844
2017-11-20T11:38:29.210Z,100836
2017-11-20T11:40:57.726Z,100835
2017-11-20T11:43:26.070Z,100823
2017-11-20T11:45:54.331Z,100827
2017-11-20T11:48:22.579Z,100822
2017-11-20T11:50:50.824Z,100821
2017-11-20T11:53:19.027Z,100833
2017-11-20T11:55:47.603Z,100825
2017-11-20T11:58:15.828Z,100833
2017-11-20T12:00:44.066Z,100826
2017-11-20T12:03:12.258Z,100826
2017-11-20T12:05:40.535Z,100822
2017-11-20T12:08:08.789Z,100811
2017-11-20T12:10:37.030Z,100827
2017-11-20T12:13:05.252Z,100818
2017-11-20T12:15:33.488Z,100814
2017-11-20T12:18:02.070Z,100818
2017-11-20T12:20:30.287Z,100783
2017-11-20T12:22:58.495Z,100810
2017-11-20T12:25:26.750Z,100806
2017-11-20T12:27:54.962Z,100808
2017-11-20T12:30:23.151Z,100794
2017-11-20T12:32:51.382Z,100797
2017-11-20T12:35:20.188Z,100797
2017-11-20T12:37:48.402Z,100792
2017-11-20T12:40:16.583Z,100789
2017-11-20T12:42:45.995Z,100803
2017-11-20T12:45:14.197Z,100792
2017-11-20T12:47:42.458Z,100809
2017-11-20T12:50:10.662Z,100795
2017-11-20T12:52:38.889Z,100799
2017-11-20T12:55:07.399Z,100795
2017-11-20T12:57:35.633Z,100795
2017-11-20T13:00:03.849Z,100792
2017-11-20T13:02:32.082Z,100791
2017-11-20T13:05:00.547Z,100786
2017-11-20T13:07:28.738Z,100782
2017-11-20T13:09:56.987Z,100779
2017-11-20T13:12:25.214Z,100776
2017-11-20T13:14:53.475Z,100787
2017-11-20T13:17:21.718Z,100774
2017-11-20T13:19:49.921Z,100780
2017-11-20T13:22:18.144Z,100770
2017-11-20T13:24:46.775Z,100778
2017-11-20T13:27:15.024Z,100765
2017-11-20T13:29:43.314Z,100767
2017-11-20T13:32:11.552Z,100765
2017-11-20T13:34:39.803Z,100768
2017-11-20T13:37:08.763Z,100760
2017-11-20T13:39:37.613Z,100753
2017-11-20T13:42:05.832Z,100750
2017-11-20T13:44:34.073Z,100757
2017-11-20T13:47:02.394Z,100748
2017-11-20T13:49:30.638Z,100748
2017-11-20T13:51:58.894Z,100745
2017-11-20T13:54:27.142Z,100738
2017-11-20T13:56:55.438Z,100738
2017-11-20T13:59:23.614Z,100740
2017-11-20T14:01:52.349Z,100737
2017-11-20T14:04:20.620Z,100734
2017-11-20T14:06:48.998Z,100733
2017-11-20T14:09:17.469Z,100729
2017-11-20T14:11:45.694Z,100739
2017-11-20T14:14:14.721Z,100729
2017-11-20T14:16:42.993Z,100724
2017-11-20T14:19:11.222Z,100731
2017-11-20T14:21:40.873Z,100729
2017-11-20T14:24:09.112Z,100727
2017-11-20T14:26:37.318Z,100723
2017-11-20T14:29:05.502Z,100712
2017-11-20T14:31:33.736Z,100713
2017-11-20T14:34:02.032Z,100717
2017-11-20T14:36:30.326Z,100712
2017-11-20T14:38:58.574Z,100720
2017-11-20T14:41:27.198Z,100712
2017-11-20T14:43:55.761Z,100709
2017-11-20T14:46:24.122Z,100706
2017-11-20T14:48:52.522Z,100711
2017-11-20T14:51:20.935Z,100703
2017-11-20T14:53:49.198Z,100702
2017-11-20T14:56:17.394Z,100696
2017-11-20T14:58:45.618Z,100696
2017-11-20T15:01:13.994Z,100692
2017-11-20T15:03:42.955Z,100693
2017-11-20T15:06:11.806Z,100691
2017-11-20T15:08:40.085Z,100691
2017-11-20T15:11:08.434Z,100688
2017-11-20T15:13:36.830Z,100684
2017-11-20T15:16:05.098Z,100688
2017-11-20T15:18:33.607Z,100695
2017-11-20T15:21:02.210Z,100690
2017-11-20T15:23:30.810Z,100687
2017-11-20T15:25:59.030Z,100686
2017-11-20T15:28:27.214Z,100684
2017-11-20T15:30:55.421Z,100681
2017-11-20T15:33:23.653Z,100691
2017-11-20T15:35:52.715Z,100659
2017-11-20T15:38:20.946Z,100664
2017-11-20T15:40:49.571Z,100654
2017-11-20T15:43:17.748Z,100657
2017-11-20T15:45:45.938Z,100666
2017-11-20T15:48:14.122Z,100661
2017-11-20T15:50:43.063Z,100658
2017-11-20T15:53:11.236Z,100653
2017-11-20T15:55:39.470Z,100655
2017-11-20T15:58:07.622Z,100663
2017-11-20T16:00:36.508Z,100642
2017-11-20T16:03:05.120Z,100641
2017-11-20T16:05:33.255Z,100638
2017-11-20T16:08:01.413Z,100642
2017-11-20T16:10:29.558Z,100622
2017-11-20T16:12:57.740Z,100638
2017-11-20T16:15:25.899Z,100642
2017-11-20T16:17:54.538Z,100640
2017-11-20T16:20:22.706Z,100631
2017-11-20T16:22:50.856Z,100633
2017-11-20T16:25:19.838Z,100634
2017-11-20T16:27:48.002Z,100637
2017-11-20T16:30:16.171Z,100627
2017-11-20T16:32:44.311Z,100633
2017-11-20T16:35:12.433Z,100632
2017-11-20T16:37:40.574Z,100628
2017-11-20T16:40:08.773Z,100632
2017-11-20T16:42:37.091Z,100622
2017-11-20T16:45:05.656Z,100626
2017-11-20T16:47:33.879Z,100623
2017-11-20T16:50:02.055Z,100617
2017-11-20T16:52:30.550Z,100615
2017-11-20T16:54:59.482Z,100610
2017-11-20T16:59:38.002Z,100607
2017-11-20T17:02:19.824Z,100611
2017-11-20T17:04:47.996Z,100607
2017-11-20T17:07:16.213Z,100598
2017-11-20T17:09:44.358Z,100597
2017-11-20T17:12:12.502Z,100605
2017-11-20T17:14:40.625Z,100605
2017-11-20T17:17:08.962Z,100598
2017-11-20T17:19:37.096Z,100595
2017-11-20T17:22:05.310Z,100596
2017-11-20T17:24:33.859Z,100588
2017-11-20T17:27:02.068Z,100588
2017-11-20T17:29:30.241Z,100590
2017-11-20T17:31:58.390Z,100594
2017-11-20T17:34:26.538Z,100613
2017-11-20T17:36:55.425Z,100592
2017-11-20T17:39:23.542Z,100583
2017-11-20T17:41:51.709Z,100587
2017-11-20T17:44:19.903Z,100567
2017-11-20T17:46:48.082Z,100570
2017-11-20T17:49:16.602Z,100570
2017-11-20T17:51:44.735Z,100572
2017-11-20T17:54:13.154Z,100566
2017-11-20T17:56:41.298Z,100572
2017-11-20T17:59:09.434Z,100564
2017-11-20T18:01:37.847Z,100562
2017-11-20T18:04:06.031Z,100568
2017-11-20T18:06:34.207Z,100567
2017-11-20T18:09:02.370Z,100567
2017-11-20T18:11:30.529Z,100561
2017-11-20T18:13:58.919Z,100555
2017-11-20T18:16:27.155Z,100551
2017-11-20T18:18:55.355Z,100552
2017-11-20T18:21:23.830Z,100545
2017-11-20T18:23:51.999Z,100544
2017-11-20T18:26:20.156Z,100534
2017-11-20T18:28:49.082Z,100533
2017-11-20T18:31:17.270Z,100540
2017-11-20T18:33:45.449Z,100542
2017-11-20T18:36:13.637Z,100539
2017-11-20T18:38:41.786Z,100536
2017-11-20T18:41:09.941Z,100537
2017-11-20T18:43:38.090Z,100519
2017-11-20T18:46:06.980Z,100521
2017-11-20T18:48:36.326Z,100515
2017-11-20T18:51:05.031Z,100510
2017-11-20T18:53:33.182Z,100511
2017-11-20T18:56:01.674Z,100511
2017-11-20T18:58:29.870Z,100499
2017-11-20T19:03:16.316Z,100500
2017-11-20T19:06:03.122Z,100497
2017-11-20T19:08:41.746Z,100496
2017-11-20T19:11:09.950Z,100497
2017-11-20T19:13:38.484Z,100499
2017-11-20T19:16:07.218Z,100500
2017-11-20T19:18:35.422Z,100502
2017-11-20T19:21:03.661Z,100488
2017-11-20T19:23:31.919Z,100498
2017-11-20T19:26:00.880Z,100499
2017-11-20T19:28:29.047Z,100497
2017-11-20T19:30:57.625Z,100496
2017-11-20T19:33:25.794Z,100491
2017-11-20T19:35:53.926Z,100492
2017-11-20T19:38:22.834Z,100486
2017-11-20T19:40:51.734Z,100492
2017-11-20T19:43:19.963Z,100488
2017-11-20T19:45:48.129Z,100485
2017-11-20T19:48:16.286Z,100484
2017-11-20T19:50:44.438Z,100490
2017-11-20T19:53:12.568Z,100491
2017-11-20T19:55:41.221Z,100493
2017-11-20T19:58:09.385Z,100493
2017-11-20T20:00:37.538Z,100491
2017-11-20T20:03:05.705Z,100487
2017-11-20T20:05:33.859Z,100492
2017-11-20T20:08:02.758Z,100488
2017-11-20T20:10:30.945Z,100483
2017-11-20T20:12:59.174Z,100482
